sensor_id;sensor_type;location;lat;lon;timestamp;P1;durP1;ratioP1;P2;durP2;ratioP2
36691;SDS011;22678;52.052;4.242;2023-11-22T00:00:57;6.17;;;3.00;;
36691;SDS011;22678;52.052;4.242;2023-11-22T00:03:23;7.10;;;3.00;;
36691;SDS011;22678;52.052;4.242;2023-11-22T00:05:51;8.83;;;3.70;;
36691;SDS011;22678;52.052;4.242;2023-11-22T00:08:16;7.87;;;3.10;;
36691;SDS011;22678;52.052;4.242;2023-11-22T00:10:42;10.07;;;3.70;;
36691;SDS011;22678;52.052;4.242;2023-11-22T00:13:08;9.47;;;4.03;;
36691;SDS011;22678;52.052;4.242;2023-11-22T00:15:33;12.53;;;4.30;;
36691;SDS011;22678;52.052;4.242;2023-11-22T00:17:58;8.97;;;3.27;;
36691;SDS011;22678;52.052;4.242;2023-11-22T00:20:28;10.20;;;4.00;;
36691;SDS011;22678;52.052;4.242;2023-11-22T00:22:53;8.17;;;3.33;;
36691;SDS011;22678;52.052;4.242;2023-11-22T00:25:18;7.27;;;3.30;;
36691;SDS011;22678;52.052;4.242;2023-11-22T00:27:44;5.57;;;2.87;;
36691;SDS011;22678;52.052;4.242;2023-11-22T00:30:10;8.83;;;3.63;;
36691;SDS011;22678;52.052;4.242;2023-11-22T00:32:35;10.10;;;3.73;;
36691;SDS011;22678;52.052;4.242;2023-11-22T00:35:00;7.33;;;3.47;;
36691;SDS011;22678;52.052;4.242;2023-11-22T00:37:26;7.40;;;2.73;;
36691;SDS011;22678;52.052;4.242;2023-11-22T00:39:51;11.13;;;4.07;;
36691;SDS011;22678;52.052;4.242;2023-11-22T00:42:17;7.73;;;3.50;;
36691;SDS011;22678;52.052;4.242;2023-11-22T00:44:45;6.00;;;2.63;;
36691;SDS011;22678;52.052;4.242;2023-11-22T00:47:10;8.67;;;5.00;;
36691;SDS011;22678;52.052;4.242;2023-11-22T00:49:36;7.17;;;3.27;;
36691;SDS011;22678;52.052;4.242;2023-11-22T00:52:01;10.00;;;3.33;;
36691;SDS011;22678;52.052;4.242;2023-11-22T00:54:28;14.50;;;4.30;;
36691;SDS011;22678;52.052;4.242;2023-11-22T00:56:53;11.80;;;4.67;;
36691;SDS011;22678;52.052;4.242;2023-11-22T00:59:18;7.10;;;3.77;;
36691;SDS011;22678;52.052;4.242;2023-11-22T01:01:44;6.87;;;3.77;;
36691;SDS011;22678;52.052;4.242;2023-11-22T01:04:10;9.40;;;4.47;;
36691;SDS011;22678;52.052;4.242;2023-11-22T01:06:36;10.40;;;3.23;;
36691;SDS011;22678;52.052;4.242;2023-11-22T01:09:02;9.70;;;4.10;;
36691;SDS011;22678;52.052;4.242;2023-11-22T01:11:27;10.37;;;4.37;;
36691;SDS011;22678;52.052;4.242;2023-11-22T01:13:53;9.30;;;3.07;;
36691;SDS011;22678;52.052;4.242;2023-11-22T01:16:18;7.73;;;3.87;;
36691;SDS011;22678;52.052;4.242;2023-11-22T01:18:44;9.50;;;4.20;;
36691;SDS011;22678;52.052;4.242;2023-11-22T01:21:11;10.50;;;3.43;;
36691;SDS011;22678;52.052;4.242;2023-11-22T01:23:36;15.60;;;4.93;;
36691;SDS011;22678;52.052;4.242;2023-11-22T01:26:02;13.73;;;5.13;;
36691;SDS011;22678;52.052;4.242;2023-11-22T01:28:28;7.87;;;4.10;;
36691;SDS011;22678;52.052;4.242;2023-11-22T01:30:54;7.17;;;3.20;;
36691;SDS011;22678;52.052;4.242;2023-11-22T01:33:22;9.90;;;3.40;;
36691;SDS011;22678;52.052;4.242;2023-11-22T01:35:48;9.23;;;4.13;;
36691;SDS011;22678;52.052;4.242;2023-11-22T01:38:16;5.67;;;2.50;;
36691;SDS011;22678;52.052;4.242;2023-11-22T01:40:45;8.27;;;2.50;;
36691;SDS011;22678;52.052;4.242;2023-11-22T01:43:19;9.93;;;2.87;;
36691;SDS011;22678;52.052;4.242;2023-11-22T01:45:46;8.40;;;3.77;;
36691;SDS011;22678;52.052;4.242;2023-11-22T01:48:11;12.37;;;4.87;;
36691;SDS011;22678;52.052;4.242;2023-11-22T01:50:37;6.00;;;3.87;;
36691;SDS011;22678;52.052;4.242;2023-11-22T01:53:06;11.27;;;5.23;;
36691;SDS011;22678;52.052;4.242;2023-11-22T01:55:32;8.07;;;3.57;;
36691;SDS011;22678;52.052;4.242;2023-11-22T01:57:57;12.17;;;5.70;;
36691;SDS011;22678;52.052;4.242;2023-11-22T02:00:23;9.07;;;3.53;;
36691;SDS011;22678;52.052;4.242;2023-11-22T02:02:51;12.17;;;4.13;;
36691;SDS011;22678;52.052;4.242;2023-11-22T02:05:16;10.90;;;4.47;;
36691;SDS011;22678;52.052;4.242;2023-11-22T02:07:43;10.23;;;3.93;;
36691;SDS011;22678;52.052;4.242;2023-11-22T02:10:08;11.50;;;3.77;;
36691;SDS011;22678;52.052;4.242;2023-11-22T02:12:34;8.90;;;5.13;;
36691;SDS011;22678;52.052;4.242;2023-11-22T02:15:00;9.10;;;5.53;;
36691;SDS011;22678;52.052;4.242;2023-11-22T02:17:28;11.07;;;4.13;;
36691;SDS011;22678;52.052;4.242;2023-11-22T02:19:54;10.03;;;4.23;;
36691;SDS011;22678;52.052;4.242;2023-11-22T02:22:19;8.77;;;4.10;;
36691;SDS011;22678;52.052;4.242;2023-11-22T02:24:44;6.90;;;3.63;;
36691;SDS011;22678;52.052;4.242;2023-11-22T02:27:10;10.73;;;4.03;;
36691;SDS011;22678;52.052;4.242;2023-11-22T02:29:36;9.37;;;3.70;;
36691;SDS011;22678;52.052;4.242;2023-11-22T02:32:01;8.50;;;3.10;;
36691;SDS011;22678;52.052;4.242;2023-11-22T02:34:27;7.93;;;3.50;;
36691;SDS011;22678;52.052;4.242;2023-11-22T02:36:52;8.27;;;4.40;;
36691;SDS011;22678;52.052;4.242;2023-11-22T02:39:17;7.90;;;3.20;;
36691;SDS011;22678;52.052;4.242;2023-11-22T02:41:43;8.33;;;3.47;;
36691;SDS011;22678;52.052;4.242;2023-11-22T02:44:09;9.97;;;4.73;;
36691;SDS011;22678;52.052;4.242;2023-11-22T02:46:35;10.70;;;4.30;;
36691;SDS011;22678;52.052;4.242;2023-11-22T02:49:01;8.73;;;3.73;;
36691;SDS011;22678;52.052;4.242;2023-11-22T02:51:26;9.87;;;3.90;;
36691;SDS011;22678;52.052;4.242;2023-11-22T02:53:54;7.73;;;3.10;;
36691;SDS011;22678;52.052;4.242;2023-11-22T02:56:19;13.07;;;4.33;;
36691;SDS011;22678;52.052;4.242;2023-11-22T02:58:44;11.67;;;4.87;;
36691;SDS011;22678;52.052;4.242;2023-11-22T03:01:10;10.10;;;4.10;;
36691;SDS011;22678;52.052;4.242;2023-11-22T03:03:36;9.53;;;4.33;;
36691;SDS011;22678;52.052;4.242;2023-11-22T03:06:01;10.63;;;4.57;;
36691;SDS011;22678;52.052;4.242;2023-11-22T03:08:27;12.27;;;6.00;;
36691;SDS011;22678;52.052;4.242;2023-11-22T03:10:52;8.27;;;4.63;;
36691;SDS011;22678;52.052;4.242;2023-11-22T03:13:18;12.70;;;4.70;;
36691;SDS011;22678;52.052;4.242;2023-11-22T03:15:44;8.77;;;3.50;;
36691;SDS011;22678;52.052;4.242;2023-11-22T03:18:09;10.43;;;3.93;;
36691;SDS011;22678;52.052;4.242;2023-11-22T03:20:36;9.37;;;5.10;;
36691;SDS011;22678;52.052;4.242;2023-11-22T03:23:02;15.83;;;4.17;;
36691;SDS011;22678;52.052;4.242;2023-11-22T03:25:27;7.60;;;3.73;;
36691;SDS011;22678;52.052;4.242;2023-11-22T03:27:53;8.47;;;4.17;;
36691;SDS011;22678;52.052;4.242;2023-11-22T03:30:19;11.90;;;4.27;;
36691;SDS011;22678;52.052;4.242;2023-11-22T03:32:45;13.67;;;5.33;;
36691;SDS011;22678;52.052;4.242;2023-11-22T03:35:10;9.97;;;6.00;;
36691;SDS011;22678;52.052;4.242;2023-11-22T03:37:35;11.07;;;5.10;;
36691;SDS011;22678;52.052;4.242;2023-11-22T03:40:01;12.83;;;4.33;;
36691;SDS011;22678;52.052;4.242;2023-11-22T03:42:27;13.93;;;5.30;;
36691;SDS011;22678;52.052;4.242;2023-11-22T03:44:53;9.47;;;4.37;;
36691;SDS011;22678;52.052;4.242;2023-11-22T03:47:19;11.80;;;5.00;;
36691;SDS011;22678;52.052;4.242;2023-11-22T03:49:44;14.47;;;5.73;;
36691;SDS011;22678;52.052;4.242;2023-11-22T03:52:10;8.93;;;4.07;;
36691;SDS011;22678;52.052;4.242;2023-11-22T03:54:36;14.83;;;5.80;;
36691;SDS011;22678;52.052;4.242;2023-11-22T03:57:02;9.57;;;3.80;;
36691;SDS011;22678;52.052;4.242;2023-11-22T03:59:28;11.37;;;4.77;;
36691;SDS011;22678;52.052;4.242;2023-11-22T04:01:53;10.60;;;4.17;;
36691;SDS011;22678;52.052;4.242;2023-11-22T04:04:19;8.33;;;3.37;;
36691;SDS011;22678;52.052;4.242;2023-11-22T04:06:44;9.53;;;4.50;;
36691;SDS011;22678;52.052;4.242;2023-11-22T04:09:10;6.93;;;3.97;;
36691;SDS011;22678;52.052;4.242;2023-11-22T04:11:37;9.53;;;5.37;;
36691;SDS011;22678;52.052;4.242;2023-11-22T04:14:03;8.30;;;3.87;;
36691;SDS011;22678;52.052;4.242;2023-11-22T04:16:28;10.57;;;4.47;;
36691;SDS011;22678;52.052;4.242;2023-11-22T04:18:54;10.00;;;4.20;;
36691;SDS011;22678;52.052;4.242;2023-11-22T04:21:19;12.60;;;5.47;;
36691;SDS011;22678;52.052;4.242;2023-11-22T04:23:44;8.73;;;3.53;;
36691;SDS011;22678;52.052;4.242;2023-11-22T04:26:10;8.60;;;4.00;;
36691;SDS011;22678;52.052;4.242;2023-11-22T04:28:35;13.60;;;4.90;;
36691;SDS011;22678;52.052;4.242;2023-11-22T04:31:01;11.80;;;4.83;;
36691;SDS011;22678;52.052;4.242;2023-11-22T04:33:26;8.53;;;4.57;;
36691;SDS011;22678;52.052;4.242;2023-11-22T04:35:54;12.17;;;5.10;;
36691;SDS011;22678;52.052;4.242;2023-11-22T04:38:20;12.60;;;5.33;;
36691;SDS011;22678;52.052;4.242;2023-11-22T04:40:45;10.90;;;5.13;;
36691;SDS011;22678;52.052;4.242;2023-11-22T04:43:11;10.07;;;4.40;;
36691;SDS011;22678;52.052;4.242;2023-11-22T04:45:36;11.97;;;4.90;;
36691;SDS011;22678;52.052;4.242;2023-11-22T04:48:02;10.47;;;4.70;;
36691;SDS011;22678;52.052;4.242;2023-11-22T04:50:29;9.57;;;5.47;;
36691;SDS011;22678;52.052;4.242;2023-11-22T04:52:54;13.67;;;5.20;;
36691;SDS011;22678;52.052;4.242;2023-11-22T04:55:19;9.53;;;4.20;;
36691;SDS011;22678;52.052;4.242;2023-11-22T04:57:45;8.23;;;4.07;;
36691;SDS011;22678;52.052;4.242;2023-11-22T05:00:11;11.30;;;5.17;;
36691;SDS011;22678;52.052;4.242;2023-11-22T05:02:37;9.73;;;5.03;;
36691;SDS011;22678;52.052;4.242;2023-11-22T05:05:02;12.43;;;5.63;;
36691;SDS011;22678;52.052;4.242;2023-11-22T05:07:28;8.70;;;4.33;;
36691;SDS011;22678;52.052;4.242;2023-11-22T05:09:54;12.07;;;5.43;;
36691;SDS011;22678;52.052;4.242;2023-11-22T05:12:20;12.03;;;6.43;;
36691;SDS011;22678;52.052;4.242;2023-11-22T05:14:45;11.80;;;5.57;;
36691;SDS011;22678;52.052;4.242;2023-11-22T05:17:11;13.50;;;7.20;;
36691;SDS011;22678;52.052;4.242;2023-11-22T05:19:37;13.03;;;5.80;;
36691;SDS011;22678;52.052;4.242;2023-11-22T05:22:03;12.90;;;5.90;;
36691;SDS011;22678;52.052;4.242;2023-11-22T05:24:28;9.73;;;4.63;;
36691;SDS011;22678;52.052;4.242;2023-11-22T05:26:53;14.83;;;6.23;;
36691;SDS011;22678;52.052;4.242;2023-11-22T05:29:19;18.83;;;6.90;;
36691;SDS011;22678;52.052;4.242;2023-11-22T05:31:44;18.27;;;6.97;;
36691;SDS011;22678;52.052;4.242;2023-11-22T05:34:09;15.13;;;6.63;;
36691;SDS011;22678;52.052;4.242;2023-11-22T05:36:35;18.27;;;7.67;;
36691;SDS011;22678;52.052;4.242;2023-11-22T05:39:00;16.73;;;7.80;;
36691;SDS011;22678;52.052;4.242;2023-11-22T05:41:26;13.70;;;7.33;;
36691;SDS011;22678;52.052;4.242;2023-11-22T05:43:52;18.60;;;7.53;;
36691;SDS011;22678;52.052;4.242;2023-11-22T05:46:18;13.87;;;7.40;;
36691;SDS011;22678;52.052;4.242;2023-11-22T05:48:47;20.20;;;8.47;;
36691;SDS011;22678;52.052;4.242;2023-11-22T05:53:44;18.47;;;7.90;;
36691;SDS011;22678;52.052;4.242;2023-11-22T05:56:10;12.77;;;6.20;;
36691;SDS011;22678;52.052;4.242;2023-11-22T05:58:36;17.27;;;7.73;;
36691;SDS011;22678;52.052;4.242;2023-11-22T06:01:10;15.80;;;6.57;;
36691;SDS011;22678;52.052;4.242;2023-11-22T06:03:38;15.73;;;8.33;;
36691;SDS011;22678;52.052;4.242;2023-11-22T06:06:06;13.37;;;6.30;;
36691;SDS011;22678;52.052;4.242;2023-11-22T06:08:32;21.17;;;8.30;;
36691;SDS011;22678;52.052;4.242;2023-11-22T06:10:57;15.67;;;8.00;;
36691;SDS011;22678;52.052;4.242;2023-11-22T06:13:24;14.33;;;7.80;;
36691;SDS011;22678;52.052;4.242;2023-11-22T06:15:50;18.53;;;8.90;;
36691;SDS011;22678;52.052;4.242;2023-11-22T06:18:15;18.27;;;8.50;;
36691;SDS011;22678;52.052;4.242;2023-11-22T06:20:41;21.37;;;8.27;;
36691;SDS011;22678;52.052;4.242;2023-11-22T06:23:06;19.30;;;7.00;;
36691;SDS011;22678;52.052;4.242;2023-11-22T06:25:32;13.87;;;8.03;;
36691;SDS011;22678;52.052;4.242;2023-11-22T06:27:57;14.93;;;7.67;;
36691;SDS011;22678;52.052;4.242;2023-11-22T06:30:23;20.40;;;8.27;;
36691;SDS011;22678;52.052;4.242;2023-11-22T06:32:50;22.73;;;9.47;;
36691;SDS011;22678;52.052;4.242;2023-11-22T06:35:15;16.23;;;7.47;;
36691;SDS011;22678;52.052;4.242;2023-11-22T06:37:42;20.10;;;10.03;;
36691;SDS011;22678;52.052;4.242;2023-11-22T06:40:08;21.87;;;9.17;;
36691;SDS011;22678;52.052;4.242;2023-11-22T06:42:34;16.80;;;8.00;;
36691;SDS011;22678;52.052;4.242;2023-11-22T06:45:00;19.47;;;9.13;;
36691;SDS011;22678;52.052;4.242;2023-11-22T06:47:26;16.43;;;8.63;;
36691;SDS011;22678;52.052;4.242;2023-11-22T06:49:52;21.10;;;9.70;;
36691;SDS011;22678;52.052;4.242;2023-11-22T06:52:18;18.37;;;9.47;;
36691;SDS011;22678;52.052;4.242;2023-11-22T06:54:43;22.27;;;8.17;;
36691;SDS011;22678;52.052;4.242;2023-11-22T06:57:09;24.33;;;9.40;;
36691;SDS011;22678;52.052;4.242;2023-11-22T06:59:34;15.90;;;8.00;;
36691;SDS011;22678;52.052;4.242;2023-11-22T07:02:00;16.23;;;8.57;;
36691;SDS011;22678;52.052;4.242;2023-11-22T07:04:25;15.13;;;8.17;;
36691;SDS011;22678;52.052;4.242;2023-11-22T07:06:50;24.13;;;9.07;;
36691;SDS011;22678;52.052;4.242;2023-11-22T07:09:16;18.77;;;7.77;;
36691;SDS011;22678;52.052;4.242;2023-11-22T07:11:41;17.73;;;9.30;;
36691;SDS011;22678;52.052;4.242;2023-11-22T07:14:09;18.07;;;8.27;;
36691;SDS011;22678;52.052;4.242;2023-11-22T07:16:34;19.03;;;8.57;;
36691;SDS011;22678;52.052;4.242;2023-11-22T07:19:00;14.77;;;7.37;;
36691;SDS011;22678;52.052;4.242;2023-11-22T07:21:28;15.90;;;7.57;;
36691;SDS011;22678;52.052;4.242;2023-11-22T07:23:56;15.87;;;7.20;;
36691;SDS011;22678;52.052;4.242;2023-11-22T07:26:21;18.47;;;7.30;;
36691;SDS011;22678;52.052;4.242;2023-11-22T07:28:47;21.37;;;9.60;;
36691;SDS011;22678;52.052;4.242;2023-11-22T07:31:12;19.13;;;7.93;;
36691;SDS011;22678;52.052;4.242;2023-11-22T07:33:37;15.10;;;7.53;;
36691;SDS011;22678;52.052;4.242;2023-11-22T07:36:04;20.40;;;7.03;;
36691;SDS011;22678;52.052;4.242;2023-11-22T07:38:29;18.67;;;7.67;;
36691;SDS011;22678;52.052;4.242;2023-11-22T07:40:56;16.60;;;7.73;;
36691;SDS011;22678;52.052;4.242;2023-11-22T07:43:21;19.57;;;7.30;;
36691;SDS011;22678;52.052;4.242;2023-11-22T07:45:47;22.50;;;8.23;;
36691;SDS011;22678;52.052;4.242;2023-11-22T07:48:13;20.87;;;9.07;;
36691;SDS011;22678;52.052;4.242;2023-11-22T07:50:39;18.23;;;7.67;;
36691;SDS011;22678;52.052;4.242;2023-11-22T07:53:08;16.07;;;7.17;;
36691;SDS011;22678;52.052;4.242;2023-11-22T07:55:37;17.53;;;8.60;;
36691;SDS011;22678;52.052;4.242;2023-11-22T07:58:06;15.23;;;7.90;;
36691;SDS011;22678;52.052;4.242;2023-11-22T08:00:33;18.50;;;8.23;;
36691;SDS011;22678;52.052;4.242;2023-11-22T08:03:02;21.30;;;8.20;;
36691;SDS011;22678;52.052;4.242;2023-11-22T08:05:28;14.60;;;7.00;;
36691;SDS011;22678;52.052;4.242;2023-11-22T08:07:54;19.73;;;8.67;;
36691;SDS011;22678;52.052;4.242;2023-11-22T08:10:19;17.33;;;7.97;;
36691;SDS011;22678;52.052;4.242;2023-11-22T08:12:46;22.67;;;7.67;;
36691;SDS011;22678;52.052;4.242;2023-11-22T08:15:13;15.63;;;7.87;;
36691;SDS011;22678;52.052;4.242;2023-11-22T08:17:39;15.70;;;8.40;;
36691;SDS011;22678;52.052;4.242;2023-11-22T08:20:05;18.70;;;7.43;;
36691;SDS011;22678;52.052;4.242;2023-11-22T08:22:32;19.17;;;9.73;;
36691;SDS011;22678;52.052;4.242;2023-11-22T08:25:02;16.03;;;7.83;;
36691;SDS011;22678;52.052;4.242;2023-11-22T08:27:28;22.77;;;8.20;;
36691;SDS011;22678;52.052;4.242;2023-11-22T08:29:54;19.73;;;8.47;;
36691;SDS011;22678;52.052;4.242;2023-11-22T08:32:19;14.57;;;7.40;;
36691;SDS011;22678;52.052;4.242;2023-11-22T08:34:48;17.00;;;8.07;;
36691;SDS011;22678;52.052;4.242;2023-11-22T08:37:14;20.07;;;8.87;;
36691;SDS011;22678;52.052;4.242;2023-11-22T08:39:40;17.37;;;9.07;;
36691;SDS011;22678;52.052;4.242;2023-11-22T08:42:05;17.57;;;7.77;;
36691;SDS011;22678;52.052;4.242;2023-11-22T08:44:34;18.80;;;9.90;;
36691;SDS011;22678;52.052;4.242;2023-11-22T08:47:01;19.37;;;9.17;;
36691;SDS011;22678;52.052;4.242;2023-11-22T08:49:28;14.87;;;8.27;;
36691;SDS011;22678;52.052;4.242;2023-11-22T08:51:53;14.77;;;8.47;;
36691;SDS011;22678;52.052;4.242;2023-11-22T08:54:18;22.57;;;9.03;;
36691;SDS011;22678;52.052;4.242;2023-11-22T08:56:44;20.47;;;9.63;;
36691;SDS011;22678;52.052;4.242;2023-11-22T08:59:11;17.50;;;9.40;;
36691;SDS011;22678;52.052;4.242;2023-11-22T09:01:37;18.90;;;7.67;;
36691;SDS011;22678;52.052;4.242;2023-11-22T09:04:02;15.93;;;7.63;;
36691;SDS011;22678;52.052;4.242;2023-11-22T09:06:28;20.57;;;10.43;;
36691;SDS011;22678;52.052;4.242;2023-11-22T09:08:54;19.47;;;9.00;;
36691;SDS011;22678;52.052;4.242;2023-11-22T09:11:20;21.47;;;8.30;;
36691;SDS011;22678;52.052;4.242;2023-11-22T09:13:47;21.63;;;10.03;;
36691;SDS011;22678;52.052;4.242;2023-11-22T09:16:14;19.80;;;8.73;;
36691;SDS011;22678;52.052;4.242;2023-11-22T09:18:41;20.23;;;8.43;;
36691;SDS011;22678;52.052;4.242;2023-11-22T09:21:07;20.17;;;9.80;;
36691;SDS011;22678;52.052;4.242;2023-11-22T09:23:34;18.73;;;9.87;;
36691;SDS011;22678;52.052;4.242;2023-11-22T09:26:01;18.67;;;9.90;;
36691;SDS011;22678;52.052;4.242;2023-11-22T09:28:26;21.63;;;11.47;;
36691;SDS011;22678;52.052;4.242;2023-11-22T09:30:52;21.80;;;11.37;;
36691;SDS011;22678;52.052;4.242;2023-11-22T09:33:17;23.50;;;10.23;;
36691;SDS011;22678;52.052;4.242;2023-11-22T09:35:44;22.93;;;9.13;;
36691;SDS011;22678;52.052;4.242;2023-11-22T09:38:12;22.47;;;10.63;;
36691;SDS011;22678;52.052;4.242;2023-11-22T09:40:41;22.57;;;10.37;;
36691;SDS011;22678;52.052;4.242;2023-11-22T09:43:08;19.60;;;9.37;;
36691;SDS011;22678;52.052;4.242;2023-11-22T09:45:34;19.60;;;10.43;;
36691;SDS011;22678;52.052;4.242;2023-11-22T09:48:01;23.27;;;11.53;;
36691;SDS011;22678;52.052;4.242;2023-11-22T09:50:40;20.47;;;10.70;;
36691;SDS011;22678;52.052;4.242;2023-11-22T09:55:58;19.52;;;10.75;;
36691;SDS011;22678;52.052;4.242;2023-11-22T09:58:28;21.23;;;10.07;;
36691;SDS011;22678;52.052;4.242;2023-11-22T10:00:55;20.87;;;8.97;;
36691;SDS011;22678;52.052;4.242;2023-11-22T10:03:21;25.43;;;12.77;;
36691;SDS011;22678;52.052;4.242;2023-11-22T10:05:48;16.50;;;8.97;;
36691;SDS011;22678;52.052;4.242;2023-11-22T10:08:14;21.10;;;10.07;;
36691;SDS011;22678;52.052;4.242;2023-11-22T10:10:41;21.13;;;11.23;;
36691;SDS011;22678;52.052;4.242;2023-11-22T10:13:10;21.80;;;10.00;;
36691;SDS011;22678;52.052;4.242;2023-11-22T10:15:35;17.17;;;8.80;;
36691;SDS011;22678;52.052;4.242;2023-11-22T10:18:01;19.33;;;10.03;;
36691;SDS011;22678;52.052;4.242;2023-11-22T10:20:42;17.20;;;9.33;;
36691;SDS011;22678;52.052;4.242;2023-11-22T10:23:11;23.30;;;12.20;;
36691;SDS011;22678;52.052;4.242;2023-11-22T10:25:45;18.10;;;9.30;;
36691;SDS011;22678;52.052;4.242;2023-11-22T10:28:20;18.57;;;9.83;;
36691;SDS011;22678;52.052;4.242;2023-11-22T10:30:49;18.27;;;9.60;;
36691;SDS011;22678;52.052;4.242;2023-11-22T10:33:16;14.80;;;7.00;;
36691;SDS011;22678;52.052;4.242;2023-11-22T10:35:46;17.97;;;8.13;;
36691;SDS011;22678;52.052;4.242;2023-11-22T10:38:13;17.50;;;9.27;;
36691;SDS011;22678;52.052;4.242;2023-11-22T10:40:40;17.80;;;9.20;;
36691;SDS011;22678;52.052;4.242;2023-11-22T10:43:06;14.60;;;8.93;;
36691;SDS011;22678;52.052;4.242;2023-11-22T10:45:35;17.37;;;8.97;;
36691;SDS011;22678;52.052;4.242;2023-11-22T10:48:02;17.33;;;8.67;;
36691;SDS011;22678;52.052;4.242;2023-11-22T10:50:28;18.23;;;9.07;;
36691;SDS011;22678;52.052;4.242;2023-11-22T10:52:53;17.87;;;9.27;;
36691;SDS011;22678;52.052;4.242;2023-11-22T10:55:25;15.43;;;8.17;;
36691;SDS011;22678;52.052;4.242;2023-11-22T10:57:52;16.33;;;8.50;;
36691;SDS011;22678;52.052;4.242;2023-11-22T11:00:21;16.77;;;8.40;;
36691;SDS011;22678;52.052;4.242;2023-11-22T11:02:50;17.67;;;9.27;;
36691;SDS011;22678;52.052;4.242;2023-11-22T11:05:22;16.83;;;8.63;;
36691;SDS011;22678;52.052;4.242;2023-11-22T11:10:38;15.93;;;7.30;;
36691;SDS011;22678;52.052;4.242;2023-11-22T11:13:05;16.20;;;8.87;;
36691;SDS011;22678;52.052;4.242;2023-11-22T11:15:31;15.50;;;7.33;;
36691;SDS011;22678;52.052;4.242;2023-11-22T11:17:57;18.83;;;7.97;;
36691;SDS011;22678;52.052;4.242;2023-11-22T11:20:23;13.77;;;7.97;;
36691;SDS011;22678;52.052;4.242;2023-11-22T11:22:48;17.77;;;9.67;;
36691;SDS011;22678;52.052;4.242;2023-11-22T11:25:15;17.80;;;9.40;;
36691;SDS011;22678;52.052;4.242;2023-11-22T11:27:43;17.40;;;7.53;;
36691;SDS011;22678;52.052;4.242;2023-11-22T11:33:15;14.40;;;6.93;;
36691;SDS011;22678;52.052;4.242;2023-11-22T11:35:49;14.65;;;8.55;;
36691;SDS011;22678;52.052;4.242;2023-11-22T11:38:21;17.83;;;7.50;;
36691;SDS011;22678;52.052;4.242;2023-11-22T11:40:55;21.47;;;8.70;;
36691;SDS011;22678;52.052;4.242;2023-11-22T11:43:21;14.90;;;7.47;;
36691;SDS011;22678;52.052;4.242;2023-11-22T11:46:06;13.67;;;7.30;;
36691;SDS011;22678;52.052;4.242;2023-11-22T11:48:33;18.50;;;8.10;;
36691;SDS011;22678;52.052;4.242;2023-11-22T11:50:58;17.87;;;7.67;;
36691;SDS011;22678;52.052;4.242;2023-11-22T11:53:24;14.60;;;6.93;;
36691;SDS011;22678;52.052;4.242;2023-11-22T11:55:49;15.63;;;7.40;;
36691;SDS011;22678;52.052;4.242;2023-11-22T11:58:16;16.77;;;7.23;;
36691;SDS011;22678;52.052;4.242;2023-11-22T12:00:42;17.27;;;8.43;;
36691;SDS011;22678;52.052;4.242;2023-11-22T12:03:07;16.03;;;9.00;;
36691;SDS011;22678;52.052;4.242;2023-11-22T12:05:38;13.43;;;6.77;;
36691;SDS011;22678;52.052;4.242;2023-11-22T12:08:04;13.80;;;7.37;;
36691;SDS011;22678;52.052;4.242;2023-11-22T12:10:30;18.70;;;7.37;;
36691;SDS011;22678;52.052;4.242;2023-11-22T12:12:55;17.70;;;7.53;;
36691;SDS011;22678;52.052;4.242;2023-11-22T12:15:21;12.83;;;5.90;;
36691;SDS011;22678;52.052;4.242;2023-11-22T12:17:48;15.77;;;7.93;;
36691;SDS011;22678;52.052;4.242;2023-11-22T12:20:16;14.70;;;5.57;;
36691;SDS011;22678;52.052;4.242;2023-11-22T12:22:46;16.00;;;8.03;;
36691;SDS011;22678;52.052;4.242;2023-11-22T12:25:13;15.93;;;7.30;;
36691;SDS011;22678;52.052;4.242;2023-11-22T12:27:39;15.50;;;7.80;;
36691;SDS011;22678;52.052;4.242;2023-11-22T12:30:09;14.25;;;8.05;;
36691;SDS011;22678;52.052;4.242;2023-11-22T12:32:39;18.43;;;8.30;;
36691;SDS011;22678;52.052;4.242;2023-11-22T12:35:06;20.23;;;7.87;;
36691;SDS011;22678;52.052;4.242;2023-11-22T12:37:32;14.60;;;7.53;;
36691;SDS011;22678;52.052;4.242;2023-11-22T12:39:58;14.35;;;7.88;;
36691;SDS011;22678;52.052;4.242;2023-11-22T12:42:23;15.18;;;9.52;;
36691;SDS011;22678;52.052;4.242;2023-11-22T12:44:50;14.73;;;6.82;;
36691;SDS011;22678;52.052;4.242;2023-11-22T12:47:33;15.48;;;7.22;;
36691;SDS011;22678;52.052;4.242;2023-11-22T12:52:26;15.70;;;7.27;;
36691;SDS011;22678;52.052;4.242;2023-11-22T12:54:52;15.93;;;8.52;;
36691;SDS011;22678;52.052;4.242;2023-11-22T12:57:18;19.37;;;10.20;;
36691;SDS011;22678;52.052;4.242;2023-11-22T12:59:43;18.38;;;9.50;;
36691;SDS011;22678;52.052;4.242;2023-11-22T13:02:09;14.13;;;8.07;;
36691;SDS011;22678;52.052;4.242;2023-11-22T13:04:34;13.27;;;6.80;;
36691;SDS011;22678;52.052;4.242;2023-11-22T13:06:59;16.17;;;7.50;;
36691;SDS011;22678;52.052;4.242;2023-11-22T13:09:25;15.33;;;7.03;;
36691;SDS011;22678;52.052;4.242;2023-11-22T13:11:51;14.73;;;6.73;;
36691;SDS011;22678;52.052;4.242;2023-11-22T13:14:17;16.08;;;8.63;;
36691;SDS011;22678;52.052;4.242;2023-11-22T13:16:43;15.33;;;8.27;;
36691;SDS011;22678;52.052;4.242;2023-11-22T13:19:10;9.60;;;6.07;;
36691;SDS011;22678;52.052;4.242;2023-11-22T13:21:35;12.97;;;7.30;;
36691;SDS011;22678;52.052;4.242;2023-11-22T13:24:01;18.80;;;7.22;;
36691;SDS011;22678;52.052;4.242;2023-11-22T13:26:26;13.30;;;8.40;;
36691;SDS011;22678;52.052;4.242;2023-11-22T13:28:52;20.50;;;8.20;;
36691;SDS011;22678;52.052;4.242;2023-11-22T13:31:19;15.18;;;8.10;;
36691;SDS011;22678;52.052;4.242;2023-11-22T13:33:46;12.38;;;5.97;;
36691;SDS011;22678;52.052;4.242;2023-11-22T13:36:12;14.55;;;6.90;;
36691;SDS011;22678;52.052;4.242;2023-11-22T13:38:38;16.30;;;6.27;;
36691;SDS011;22678;52.052;4.242;2023-11-22T13:41:04;17.83;;;7.73;;
36691;SDS011;22678;52.052;4.242;2023-11-22T13:43:29;17.90;;;8.83;;
36691;SDS011;22678;52.052;4.242;2023-11-22T13:45:56;11.43;;;6.32;;
36691;SDS011;22678;52.052;4.242;2023-11-22T13:48:21;14.02;;;8.40;;
36691;SDS011;22678;52.052;4.242;2023-11-22T13:50:48;14.48;;;7.97;;
36691;SDS011;22678;52.052;4.242;2023-11-22T13:53:14;13.48;;;6.65;;
36691;SDS011;22678;52.052;4.242;2023-11-22T13:55:40;18.95;;;8.32;;
36691;SDS011;22678;52.052;4.242;2023-11-22T13:58:05;16.90;;;7.60;;
36691;SDS011;22678;52.052;4.242;2023-11-22T14:00:30;18.40;;;7.18;;
36691;SDS011;22678;52.052;4.242;2023-11-22T14:02:59;13.93;;;8.23;;
36691;SDS011;22678;52.052;4.242;2023-11-22T14:05:32;14.82;;;6.88;;
36691;SDS011;22678;52.052;4.242;2023-11-22T14:08:00;16.53;;;7.77;;
36691;SDS011;22678;52.052;4.242;2023-11-22T14:10:25;16.83;;;8.23;;
36691;SDS011;22678;52.052;4.242;2023-11-22T14:12:51;14.70;;;7.23;;
36691;SDS011;22678;52.052;4.242;2023-11-22T14:15:17;12.17;;;6.63;;
36691;SDS011;22678;52.052;4.242;2023-11-22T14:17:42;10.60;;;5.30;;
36691;SDS011;22678;52.052;4.242;2023-11-22T14:20:08;15.02;;;7.00;;
36691;SDS011;22678;52.052;4.242;2023-11-22T14:22:35;15.45;;;7.43;;
36691;SDS011;22678;52.052;4.242;2023-11-22T14:25:01;13.57;;;7.47;;
36691;SDS011;22678;52.052;4.242;2023-11-22T14:27:27;15.30;;;6.70;;
36691;SDS011;22678;52.052;4.242;2023-11-22T14:29:54;13.90;;;6.37;;
36691;SDS011;22678;52.052;4.242;2023-11-22T14:32:20;11.02;;;5.72;;
36691;SDS011;22678;52.052;4.242;2023-11-22T14:34:46;10.30;;;6.87;;
36691;SDS011;22678;52.052;4.242;2023-11-22T14:37:12;16.10;;;7.97;;
36691;SDS011;22678;52.052;4.242;2023-11-22T14:39:38;13.70;;;6.47;;
36691;SDS011;22678;52.052;4.242;2023-11-22T14:42:04;13.33;;;6.43;;
36691;SDS011;22678;52.052;4.242;2023-11-22T14:44:33;11.00;;;6.83;;